createdAt,value
2018-12-05T00:00:00.718Z,19.30
2018-12-05T00:02:28.534Z,16.30
2018-12-05T00:04:55.965Z,16.63
2018-12-05T00:07:23.363Z,15.40
2018-12-05T00:12:28.602Z,14.70
2018-12-05T00:14:55.974Z,20.00
2018-12-05T00:17:23.373Z,16.90
2018-12-05T00:19:50.795Z,17.20
2018-12-05T00:22:18.177Z,21.93
2018-12-05T00:24:45.593Z,19.97
2018-12-05T00:27:12.919Z,21.97
2018-12-05T00:29:40.919Z,23.47
2018-12-05T00:32:09.002Z,22.77
2018-12-05T00:34:36.393Z,20.10
2018-12-05T00:37:04.374Z,20.60
2018-12-05T00:39:31.804Z,18.97
2018-12-05T00:41:59.183Z,19.17
2018-12-05T00:44:26.598Z,17.80
2018-12-05T00:46:54.008Z,19.27
2018-12-05T00:49:21.375Z,16.03
2018-12-05T00:51:48.740Z,16.67
2018-12-05T00:54:16.137Z,17.50
2018-12-05T00:56:43.548Z,16.87
2018-12-05T00:59:10.984Z,18.07
2018-12-05T01:01:38.522Z,16.20
2018-12-05T01:04:06.943Z,16.97
2018-12-05T01:06:34.403Z,18.00
2018-12-05T01:09:01.883Z,18.27
2018-12-05T01:11:29.267Z,18.20
2018-12-05T01:13:56.604Z,16.90
2018-12-05T01:16:24.074Z,16.00
2018-12-05T01:18:51.457Z,16.77
2018-12-05T01:21:19.503Z,14.73
2018-12-05T01:23:47.006Z,20.13
2018-12-05T01:26:14.385Z,17.60
2018-12-05T01:28:41.862Z,18.30
2018-12-05T01:31:09.484Z,18.57
2018-12-05T01:33:37.524Z,18.50
2018-12-05T01:36:04.903Z,17.47
2018-12-05T01:38:32.863Z,19.10
2018-12-05T01:41:00.207Z,21.90
2018-12-05T01:43:32.098Z,19.97
2018-12-05T01:45:59.430Z,19.43
2018-12-05T01:48:27.589Z,20.70
2018-12-05T01:50:54.944Z,19.30
2018-12-05T01:53:22.267Z,17.87
2018-12-05T01:55:49.629Z,18.67
2018-12-05T01:58:16.998Z,20.03
2018-12-05T02:00:44.923Z,16.67
2018-12-05T02:03:12.368Z,20.00
2018-12-05T02:05:40.367Z,20.43
2018-12-05T02:08:18.018Z,18.97
2018-12-05T02:10:45.381Z,19.07
2018-12-05T02:13:12.825Z,18.40
2018-12-05T02:15:40.285Z,19.13
2018-12-05T02:18:08.228Z,20.07
2018-12-05T02:20:35.654Z,21.43
2018-12-05T02:23:03.040Z,20.10
2018-12-05T02:25:30.417Z,19.73
2018-12-05T02:27:57.767Z,22.67
2018-12-05T02:30:25.874Z,20.63
2018-12-05T02:32:54.062Z,22.03
2018-12-05T02:35:22.153Z,21.00
2018-12-05T02:37:49.603Z,23.40
2018-12-05T02:40:17.064Z,22.47
2018-12-05T02:42:44.455Z,22.17
2018-12-05T02:45:11.878Z,24.27
2018-12-05T02:47:39.294Z,22.80
2018-12-05T02:50:06.938Z,22.33
2018-12-05T02:52:34.404Z,26.83
2018-12-05T02:55:01.808Z,24.03
2018-12-05T02:57:29.178Z,24.90
2018-12-05T02:59:56.688Z,24.30
2018-12-05T03:02:24.078Z,26.17
2018-12-05T03:04:51.503Z,31.90
2018-12-05T03:07:18.949Z,25.90
2018-12-05T03:09:47.137Z,28.73
2018-12-05T03:12:14.490Z,25.77
2018-12-05T03:14:41.881Z,26.30
2018-12-05T03:17:09.243Z,25.57
2018-12-05T03:19:36.629Z,23.93
2018-12-05T03:22:04.169Z,24.93
2018-12-05T03:24:31.556Z,24.27
2018-12-05T03:26:58.944Z,26.57
2018-12-05T03:29:26.300Z,25.50
2018-12-05T03:31:53.686Z,28.93
2018-12-05T03:34:21.068Z,25.13
2018-12-05T03:36:48.493Z,27.13
2018-12-05T03:39:15.820Z,25.73
2018-12-05T03:41:43.235Z,28.33
2018-12-05T03:44:10.605Z,29.53
2018-12-05T03:46:37.993Z,29.80
2018-12-05T03:49:05.333Z,30.53
2018-12-05T03:51:32.725Z,29.67
2018-12-05T03:54:00.267Z,32.17
2018-12-05T03:56:27.663Z,32.77
2018-12-05T03:58:55.043Z,34.60
2018-12-05T04:01:22.392Z,36.07
2018-12-05T04:03:49.747Z,31.33
2018-12-05T04:06:17.080Z,35.07
2018-12-05T04:08:44.520Z,32.43
2018-12-05T04:11:11.886Z,30.80
2018-12-05T04:13:39.254Z,32.87
2018-12-05T04:16:06.667Z,38.10
2018-12-05T04:18:34.024Z,33.13
2018-12-05T04:21:01.449Z,30.23
2018-12-05T04:23:28.854Z,35.10
2018-12-05T04:25:56.198Z,34.47
2018-12-05T04:28:23.544Z,34.83
2018-12-05T04:30:50.900Z,33.13
2018-12-05T04:33:18.295Z,38.87
2018-12-05T04:35:45.656Z,34.40
2018-12-05T04:38:13.094Z,36.77
2018-12-05T04:40:40.450Z,35.40
2018-12-05T04:43:07.814Z,35.13
2018-12-05T04:45:35.170Z,43.87
2018-12-05T04:48:02.574Z,44.37
2018-12-05T04:50:29.910Z,42.87
2018-12-05T04:52:57.243Z,45.33
2018-12-05T04:55:24.648Z,50.17
2018-12-05T04:57:52.587Z,52.17
2018-12-05T05:00:20.036Z,44.23
2018-12-05T05:02:47.394Z,44.30
2018-12-05T05:05:14.792Z,42.97
2018-12-05T05:07:42.145Z,45.17
2018-12-05T05:10:11.587Z,45.83
2018-12-05T05:12:38.942Z,41.07
2018-12-05T05:15:06.374Z,40.63
2018-12-05T05:17:33.691Z,43.67
2018-12-05T05:20:01.075Z,40.37
2018-12-05T05:22:28.516Z,40.60
2018-12-05T05:24:55.856Z,39.70
2018-12-05T05:27:23.353Z,44.70
2018-12-05T05:29:50.704Z,45.47
2018-12-05T05:32:18.069Z,48.63
2018-12-05T05:34:45.414Z,50.60
2018-12-05T05:37:12.841Z,45.73
2018-12-05T05:39:40.179Z,47.00
2018-12-05T05:42:07.574Z,48.10
2018-12-05T05:44:34.944Z,55.37
2018-12-05T05:47:02.355Z,55.60
2018-12-05T05:49:29.694Z,43.90
2018-12-05T05:51:57.059Z,49.53
2018-12-05T05:54:24.425Z,50.97
2018-12-05T05:56:51.885Z,49.33
2018-12-05T05:59:19.348Z,49.87
2018-12-05T06:01:46.665Z,47.77
2018-12-05T06:04:14.045Z,49.67
2018-12-05T06:06:41.375Z,56.63
2018-12-05T06:09:08.766Z,49.60
2018-12-05T06:11:36.066Z,49.07
2018-12-05T06:14:03.460Z,46.37
2018-12-05T06:16:30.827Z,49.50
2018-12-05T06:18:58.236Z,52.43
2018-12-05T06:21:25.615Z,48.67
2018-12-05T06:23:53.041Z,48.30
2018-12-05T06:26:20.413Z,45.10
2018-12-05T06:28:47.774Z,47.90
2018-12-05T06:31:15.185Z,52.13
2018-12-05T06:33:42.525Z,57.73
2018-12-05T06:36:09.871Z,51.23
2018-12-05T06:38:37.252Z,41.97
2018-12-05T06:41:04.680Z,49.37
2018-12-05T06:43:32.027Z,50.07
2018-12-05T06:45:59.395Z,47.50
2018-12-05T06:48:26.734Z,44.60
2018-12-05T06:50:54.101Z,47.50
2018-12-05T06:53:21.427Z,48.33
2018-12-05T06:55:48.831Z,55.27
2018-12-05T06:58:16.221Z,47.80
2018-12-05T07:00:43.610Z,49.00
2018-12-05T07:03:11.020Z,53.87
2018-12-05T07:05:38.380Z,44.33
2018-12-05T07:08:05.766Z,37.80
2018-12-05T07:10:33.116Z,42.33
2018-12-05T07:13:00.490Z,41.60
2018-12-05T07:15:27.836Z,45.33
2018-12-05T07:17:55.266Z,46.40
2018-12-05T07:20:22.631Z,43.37
2018-12-05T07:22:49.988Z,42.70
2018-12-05T07:25:17.395Z,40.37
2018-12-05T07:27:44.843Z,43.57
2018-12-05T07:30:12.205Z,44.70
2018-12-05T07:32:39.638Z,48.83
2018-12-05T07:35:07.098Z,42.23
2018-12-05T07:37:34.539Z,48.10
2018-12-05T07:40:01.875Z,47.00
2018-12-05T07:42:29.295Z,49.33
2018-12-05T07:44:56.636Z,43.27
2018-12-05T07:47:24.022Z,42.57
2018-12-05T07:49:51.356Z,49.13
2018-12-05T07:52:18.791Z,47.07
2018-12-05T07:54:46.148Z,41.67
2018-12-05T07:57:13.546Z,39.00
2018-12-05T07:59:40.936Z,37.10
2018-12-05T08:02:08.305Z,39.53
2018-12-05T08:04:35.708Z,34.97
2018-12-05T08:07:03.145Z,41.47
2018-12-05T08:09:30.496Z,38.80
2018-12-05T08:11:57.875Z,35.70
2018-12-05T08:14:25.260Z,40.10
2018-12-05T08:16:52.631Z,38.87
2018-12-05T08:19:19.992Z,31.43
2018-12-05T08:21:47.360Z,33.63
2018-12-05T08:24:14.794Z,33.73
2018-12-05T08:26:42.176Z,32.60
2018-12-05T08:29:10.727Z,36.93
2018-12-05T08:31:38.115Z,37.77
2018-12-05T08:34:05.480Z,32.87
2018-12-05T08:36:32.842Z,36.77
2018-12-05T08:39:00.221Z,39.17
2018-12-05T08:41:27.626Z,37.30
2018-12-05T08:43:55.004Z,30.30
2018-12-05T08:46:22.380Z,38.60
2018-12-05T08:48:49.748Z,40.33
2018-12-05T08:51:17.136Z,44.80
2018-12-05T08:53:44.538Z,36.47
2018-12-05T08:56:11.925Z,41.47
2018-12-05T08:58:39.334Z,44.30
2018-12-05T09:01:06.730Z,37.83
2018-12-05T09:03:34.109Z,34.23
2018-12-05T09:06:01.477Z,42.33
2018-12-05T09:08:28.864Z,37.03
2018-12-05T09:10:56.290Z,32.90
2018-12-05T09:13:23.784Z,32.20
2018-12-05T09:15:51.194Z,33.17
2018-12-05T09:18:18.600Z,31.70
2018-12-05T09:20:45.929Z,33.20
2018-12-05T09:23:13.355Z,33.23
2018-12-05T09:25:40.731Z,34.10
2018-12-05T09:28:08.132Z,32.23
2018-12-05T09:30:35.601Z,31.70
2018-12-05T09:33:03.033Z,30.53
2018-12-05T09:35:30.445Z,33.07
2018-12-05T09:37:57.802Z,27.73
2018-12-05T09:40:25.177Z,29.03
2018-12-05T09:42:52.550Z,25.23
2018-12-05T09:45:19.925Z,27.53
2018-12-05T09:47:47.388Z,27.40
2018-12-05T09:50:14.747Z,24.33
2018-12-05T09:52:42.139Z,24.40
2018-12-05T09:55:09.636Z,24.73
2018-12-05T09:57:37.010Z,23.47
2018-12-05T10:00:05.739Z,26.23
2018-12-05T10:02:33.126Z,22.87
2018-12-05T10:05:00.491Z,21.33
2018-12-05T10:07:27.886Z,24.00
2018-12-05T10:09:55.801Z,23.07
2018-12-05T10:12:23.199Z,21.27
2018-12-05T10:14:50.655Z,23.27
2018-12-05T10:17:18.133Z,22.53
2018-12-05T10:19:45.546Z,22.70
2018-12-05T10:22:12.952Z,23.07
2018-12-05T10:24:40.340Z,23.07
2018-12-05T10:27:07.701Z,22.00
2018-12-05T10:29:35.114Z,21.93
2018-12-05T10:32:02.601Z,18.77
2018-12-05T10:34:29.999Z,20.87
2018-12-05T10:36:57.386Z,18.90
2018-12-05T10:39:24.701Z,20.07
2018-12-05T10:41:52.201Z,19.40
2018-12-05T10:44:19.611Z,19.10
2018-12-05T10:46:46.971Z,19.43
2018-12-05T10:49:14.374Z,18.33
2018-12-05T10:51:41.725Z,17.93
2018-12-05T10:54:09.101Z,17.70
2018-12-05T10:56:36.544Z,16.33
2018-12-05T10:59:04.060Z,16.77
2018-12-05T11:01:37.086Z,18.40
2018-12-05T11:04:08.996Z,19.00
2018-12-05T11:06:42.077Z,18.03
2018-12-05T11:09:15.115Z,17.97
2018-12-05T11:11:48.140Z,20.10
2018-12-05T11:14:21.167Z,21.70
2018-12-05T11:17:51.884Z,22.98
2018-12-05T11:20:24.931Z,25.43
2018-12-05T11:22:58.067Z,25.13
2018-12-05T11:25:25.426Z,29.53
2018-12-05T11:27:52.800Z,20.50
2018-12-05T11:30:20.220Z,22.70
2018-12-05T11:32:47.633Z,20.30
2018-12-05T11:35:15.029Z,22.57
2018-12-05T11:37:42.445Z,22.70
2018-12-05T11:42:47.208Z,18.07
2018-12-05T11:45:14.589Z,21.50
2018-12-05T11:47:41.975Z,26.07
2018-12-05T11:50:09.521Z,22.10
2018-12-05T11:52:36.870Z,20.30
2018-12-05T11:55:04.554Z,22.00
2018-12-05T11:57:31.894Z,23.97
2018-12-05T11:59:59.265Z,19.17
2018-12-05T12:02:26.661Z,18.10
2018-12-05T12:04:54.055Z,20.67
2018-12-05T12:07:21.468Z,19.07
2018-12-05T12:09:48.847Z,19.20
2018-12-05T12:12:21.785Z,22.13
2018-12-05T12:14:49.220Z,19.87
2018-12-05T12:17:16.693Z,20.90
2018-12-05T12:19:44.091Z,19.53
2018-12-05T12:22:11.675Z,16.83
2018-12-05T12:24:39.056Z,19.87
2018-12-05T12:27:06.582Z,20.43
2018-12-05T12:29:33.979Z,17.23
2018-12-05T12:32:01.414Z,21.10
2018-12-05T12:34:28.750Z,20.90
2018-12-05T12:36:56.271Z,19.10
2018-12-05T12:39:23.659Z,18.50
2018-12-05T12:41:51.046Z,18.83
2018-12-05T12:44:18.429Z,20.67
2018-12-05T12:46:45.911Z,20.17
2018-12-05T12:49:13.345Z,20.53
2018-12-05T12:51:40.755Z,16.50
2018-12-05T12:54:08.331Z,16.73
2018-12-05T12:56:35.765Z,16.83
2018-12-05T12:59:03.255Z,16.73
2018-12-05T13:01:30.674Z,19.30
2018-12-05T13:03:58.086Z,18.53
2018-12-05T13:06:25.480Z,20.67
2018-12-05T13:08:52.906Z,20.40
2018-12-05T13:11:20.326Z,20.60
2018-12-05T13:13:47.726Z,37.37
2018-12-05T13:16:15.095Z,35.13
2018-12-05T13:18:42.553Z,18.27
2018-12-05T13:21:09.985Z,18.03
2018-12-05T13:23:37.445Z,19.70
2018-12-05T13:26:04.885Z,21.07
2018-12-05T13:28:32.275Z,18.03
2018-12-05T13:30:59.637Z,19.03
2018-12-05T13:33:27.196Z,17.73
2018-12-05T13:35:54.686Z,18.43
2018-12-05T13:38:22.142Z,16.40
2018-12-05T13:40:49.680Z,14.83
2018-12-05T13:43:17.088Z,19.07
2018-12-05T13:45:44.493Z,21.93
2018-12-05T13:48:11.863Z,20.33
2018-12-05T13:50:39.283Z,20.50
2018-12-05T13:53:06.703Z,19.47
2018-12-05T13:55:34.193Z,21.30
2018-12-05T13:58:01.580Z,18.73
2018-12-05T14:00:29.079Z,20.60
2018-12-05T14:02:56.468Z,21.23
2018-12-05T14:05:23.875Z,19.07
2018-12-05T14:07:51.263Z,18.73
2018-12-05T14:10:22.097Z,20.90
2018-12-05T14:12:49.515Z,21.70
2018-12-05T14:15:16.934Z,23.93
2018-12-05T14:17:44.307Z,20.77
2018-12-05T14:20:11.753Z,24.43
2018-12-05T14:22:39.178Z,21.73
2018-12-05T14:25:07.337Z,22.47
2018-12-05T14:27:35.871Z,24.07
2018-12-05T14:30:03.679Z,24.87
2018-12-05T14:32:31.086Z,19.57
2018-12-05T14:34:58.467Z,23.17
2018-12-05T14:37:27.902Z,26.47
2018-12-05T14:39:55.294Z,31.07
2018-12-05T14:42:22.709Z,28.47
2018-12-05T14:44:50.111Z,27.53
2018-12-05T14:47:18.511Z,28.93
2018-12-05T14:49:45.875Z,29.03
2018-12-05T14:52:13.284Z,33.07
2018-12-05T14:54:40.677Z,30.37
2018-12-05T14:57:08.147Z,29.13
2018-12-05T14:59:35.493Z,29.17
2018-12-05T15:02:02.929Z,27.10
2018-12-05T15:04:35.506Z,30.10
2018-12-05T15:07:03.151Z,26.67
2018-12-05T15:09:30.527Z,30.10
2018-12-05T15:11:57.923Z,31.03
2018-12-05T15:14:25.502Z,34.53
2018-12-05T15:16:52.898Z,28.33
2018-12-05T15:19:25.869Z,29.27
2018-12-05T15:21:56.971Z,26.73
2018-12-05T15:24:24.349Z,31.00
2018-12-05T15:27:03.727Z,29.73
2018-12-05T15:29:31.199Z,24.83
2018-12-05T15:31:58.634Z,29.37
2018-12-05T15:34:26.138Z,31.63
2018-12-05T15:36:53.553Z,25.10
2018-12-05T15:39:21.039Z,28.97
2018-12-05T15:41:48.447Z,30.77
2018-12-05T15:44:15.856Z,29.53
2018-12-05T15:46:43.213Z,33.13
2018-12-05T15:49:10.636Z,29.13
2018-12-05T15:51:38.065Z,28.87
2018-12-05T15:54:05.645Z,27.67
2018-12-05T15:56:33.063Z,35.03
2018-12-05T15:59:00.559Z,34.10
2018-12-05T16:01:27.948Z,35.00
2018-12-05T16:03:55.397Z,33.60
2018-12-05T16:06:22.871Z,30.17
2018-12-05T16:08:50.267Z,28.57
2018-12-05T16:11:17.660Z,27.80
2018-12-05T16:13:45.102Z,30.50
2018-12-05T16:16:20.039Z,31.10
2018-12-05T16:18:47.463Z,32.70
2018-12-05T16:21:14.863Z,28.50
2018-12-05T16:23:42.237Z,33.33
2018-12-05T16:26:10.723Z,34.83
2018-12-05T16:28:38.637Z,35.10
2018-12-05T16:31:06.059Z,34.93
2018-12-05T16:33:33.467Z,29.67
2018-12-05T16:36:00.868Z,37.50
2018-12-05T16:38:28.258Z,40.10
2018-12-05T16:40:55.666Z,38.83
2018-12-05T16:43:23.069Z,35.17
2018-12-05T16:45:50.485Z,33.20
2018-12-05T16:48:17.879Z,65.03
2018-12-05T16:50:45.319Z,47.67
2018-12-05T16:53:12.731Z,49.80
2018-12-05T16:55:40.163Z,40.43
2018-12-05T16:58:07.588Z,42.40
2018-12-05T17:00:34.958Z,41.53
2018-12-05T17:03:02.393Z,41.77
2018-12-05T17:05:29.774Z,39.83
2018-12-05T17:07:57.198Z,37.77
2018-12-05T17:10:24.584Z,43.57
2018-12-05T17:12:52.005Z,40.17
2018-12-05T17:15:19.388Z,41.83
2018-12-05T17:17:46.819Z,39.10
2018-12-05T17:20:14.248Z,35.33
2018-12-05T17:22:41.663Z,36.90
2018-12-05T17:25:09.239Z,42.80
2018-12-05T17:27:36.656Z,35.30
2018-12-05T17:30:04.728Z,35.23
2018-12-05T17:32:32.105Z,33.93
2018-12-05T17:34:59.553Z,31.47
2018-12-05T17:37:27.045Z,31.93
2018-12-05T17:39:54.502Z,34.60
2018-12-05T17:42:22.103Z,30.33
2018-12-05T17:44:49.718Z,32.27
2018-12-05T17:47:17.110Z,33.20
2018-12-05T17:49:44.541Z,32.70
2018-12-05T17:52:11.944Z,33.33
2018-12-05T17:54:39.379Z,36.00
2018-12-05T17:57:06.883Z,47.50
2018-12-05T17:59:34.366Z,33.47
2018-12-05T18:02:01.805Z,40.40
2018-12-05T18:04:29.238Z,36.07
2018-12-05T18:06:56.752Z,31.10
2018-12-05T18:09:24.178Z,32.03
2018-12-05T18:11:51.601Z,31.93
2018-12-05T18:14:19.261Z,31.10
2018-12-05T18:16:46.695Z,32.03
2018-12-05T18:19:14.105Z,31.10
2018-12-05T18:21:41.705Z,32.27
2018-12-05T18:24:09.373Z,31.20
2018-12-05T18:26:36.898Z,33.23
2018-12-05T18:29:04.388Z,34.13
2018-12-05T18:31:31.947Z,32.47
2018-12-05T18:33:59.365Z,39.88
2018-12-05T18:36:26.805Z,32.47
2018-12-05T18:38:54.238Z,33.87
2018-12-05T18:41:21.680Z,34.83
2018-12-05T18:43:49.116Z,35.07
2018-12-05T18:46:16.522Z,32.10
2018-12-05T18:48:43.960Z,27.80
2018-12-05T18:51:11.395Z,28.67
2018-12-05T18:53:38.831Z,29.97
2018-12-05T18:56:06.309Z,31.77
2018-12-05T18:58:33.745Z,30.40
2018-12-05T19:01:01.198Z,29.70
2018-12-05T19:03:28.589Z,31.93
2018-12-05T19:05:55.948Z,26.80
2018-12-05T19:08:23.359Z,26.50
2018-12-05T19:10:50.808Z,27.17
2018-12-05T19:13:18.254Z,19.73
2018-12-05T19:15:45.658Z,24.43
2018-12-05T19:18:13.113Z,19.93
2018-12-05T19:20:40.485Z,18.97
2018-12-05T19:23:07.885Z,17.80
2018-12-05T19:25:35.323Z,20.17
2018-12-05T19:28:02.812Z,27.70
2018-12-05T19:30:30.205Z,27.73
2018-12-05T19:32:57.669Z,27.43
2018-12-05T19:35:25.060Z,24.13
2018-12-05T19:37:52.500Z,18.57
2018-12-05T19:40:20.104Z,19.40
2018-12-05T19:42:47.549Z,19.07
2018-12-05T19:45:14.980Z,19.50
2018-12-05T19:47:42.396Z,23.17
2018-12-05T19:50:09.943Z,21.30
2018-12-05T19:52:37.354Z,22.70
2018-12-05T19:55:04.939Z,22.77
2018-12-05T19:57:32.377Z,23.73
2018-12-05T19:59:59.823Z,24.33
2018-12-05T20:02:27.225Z,30.97
2018-12-05T20:04:54.643Z,25.57
2018-12-05T20:07:22.078Z,55.73
2018-12-05T20:09:49.539Z,30.67
2018-12-05T20:12:16.989Z,30.80
2018-12-05T20:14:44.424Z,28.50
2018-12-05T20:17:11.840Z,30.37
2018-12-05T20:19:39.336Z,43.57
2018-12-05T20:22:06.802Z,32.13
2018-12-05T20:24:34.251Z,25.63
2018-12-05T20:27:04.904Z,28.37
2018-12-05T20:29:32.489Z,30.77
2018-12-05T20:31:59.920Z,31.50
2018-12-05T20:34:27.324Z,29.43
2018-12-05T20:36:59.888Z,26.43
2018-12-05T20:39:27.285Z,26.53
2018-12-05T20:42:00.870Z,27.57
2018-12-05T20:44:28.294Z,31.27
2018-12-05T20:47:05.298Z,30.10
2018-12-05T20:49:32.724Z,27.90
2018-12-05T20:52:00.134Z,29.50
2018-12-05T20:54:27.533Z,28.53
2018-12-05T20:57:04.053Z,26.50
2018-12-05T20:59:31.475Z,29.63
2018-12-05T21:01:58.951Z,29.40
2018-12-05T21:04:30.084Z,30.07
2018-12-05T21:07:05.149Z,29.47
2018-12-05T21:09:38.797Z,28.33
2018-12-05T21:12:06.231Z,28.77
2018-12-05T21:14:33.670Z,27.43
2018-12-05T21:17:01.058Z,28.23
2018-12-05T21:19:28.464Z,29.77
2018-12-05T21:21:55.850Z,27.77
2018-12-05T21:24:23.264Z,27.30
2018-12-05T21:26:50.661Z,25.30
2018-12-05T21:29:18.076Z,29.47
2018-12-05T21:31:45.461Z,27.87
2018-12-05T21:34:12.872Z,23.83
2018-12-05T21:36:45.600Z,24.47
2018-12-05T21:39:13.023Z,27.40
2018-12-05T21:41:40.439Z,29.93
2018-12-05T21:44:07.889Z,27.70
2018-12-05T21:46:35.391Z,24.90
2018-12-05T21:49:02.937Z,24.93
2018-12-05T21:51:30.320Z,23.80
2018-12-05T21:53:57.783Z,22.73
2018-12-05T21:56:25.361Z,23.23
2018-12-05T21:58:52.752Z,20.03
2018-12-05T22:01:20.216Z,21.63
2018-12-05T22:03:47.584Z,20.03
2018-12-05T22:06:22.853Z,21.13
2018-12-05T22:08:52.011Z,20.70
2018-12-05T22:11:22.801Z,21.53
2018-12-05T22:13:50.164Z,22.40
2018-12-05T22:16:25.290Z,20.53
2018-12-05T22:18:52.733Z,20.77
2018-12-05T22:21:20.097Z,21.13
2018-12-05T22:23:47.620Z,23.33
2018-12-05T22:26:19.950Z,19.40
2018-12-05T22:28:47.350Z,23.10
2018-12-05T22:31:14.777Z,23.13
2018-12-05T22:33:42.417Z,20.50
2018-12-05T22:36:10.520Z,25.27
2018-12-05T22:38:37.895Z,20.33
2018-12-05T22:41:08.987Z,23.47
2018-12-05T22:43:36.585Z,22.00
2018-12-05T22:46:04.061Z,23.93
2018-12-05T22:48:33.121Z,21.67
2018-12-05T22:51:00.600Z,20.80
2018-12-05T22:53:27.979Z,22.13
2018-12-05T22:55:55.390Z,20.37
2018-12-05T22:58:22.779Z,23.43
2018-12-05T23:00:53.208Z,20.97
2018-12-05T23:03:20.604Z,22.00
2018-12-05T23:05:47.999Z,22.03
2018-12-05T23:08:19.419Z,20.30
2018-12-05T23:10:46.774Z,19.80
2018-12-05T23:13:14.223Z,22.13
2018-12-05T23:15:41.588Z,21.43
2018-12-05T23:18:08.994Z,21.73
2018-12-05T23:20:36.336Z,21.87
2018-12-05T23:23:03.735Z,22.70
2018-12-05T23:25:31.120Z,20.03
2018-12-05T23:28:08.208Z,20.37
2018-12-05T23:30:35.730Z,21.47
2018-12-05T23:33:03.120Z,21.90
2018-12-05T23:35:30.474Z,23.13
2018-12-05T23:37:58.927Z,24.47
2018-12-05T23:40:26.327Z,22.40
2018-12-05T23:42:53.688Z,19.70
2018-12-05T23:45:21.100Z,23.30
2018-12-05T23:47:48.471Z,21.57
2018-12-05T23:50:15.866Z,23.17
2018-12-05T23:52:43.219Z,22.77
2018-12-05T23:55:10.616Z,22.53
2018-12-05T23:57:38.018Z,25.30
